createdAt,value
2019-04-03T00:02:58.646Z,57.55
2019-04-03T00:05:06.411Z,60.50
2019-04-03T00:07:12.840Z,59.27
2019-04-03T00:09:18.357Z,59.42
2019-04-03T00:11:24.040Z,55.35
2019-04-03T00:13:29.552Z,55.30
2019-04-03T00:15:35.087Z,57.43
2019-04-03T00:17:40.631Z,55.83
2019-04-03T00:19:47.671Z,50.23
2019-04-03T00:21:53.304Z,58.45
2019-04-03T00:23:58.932Z,49.58
2019-04-03T00:26:04.517Z,49.33
2019-04-03T00:28:10.049Z,51.13
2019-04-03T00:30:15.949Z,52.30
2019-04-03T00:32:21.762Z,47.70
2019-04-03T00:34:28.864Z,47.17
2019-04-03T00:36:35.368Z,46.05
2019-04-03T00:38:40.981Z,52.15
2019-04-03T00:40:46.696Z,49.42
2019-04-03T00:42:54.069Z,46.95
2019-04-03T00:44:59.466Z,47.98
2019-04-03T00:47:05.154Z,51.68
2019-04-03T00:49:10.680Z,46.48
2019-04-03T00:51:16.263Z,45.70
2019-04-03T00:53:21.821Z,41.77
2019-04-03T00:55:27.336Z,47.23
2019-04-03T00:57:32.859Z,42.58
2019-04-03T00:59:38.405Z,43.25
2019-04-03T01:01:43.924Z,43.48
2019-04-03T01:03:49.508Z,40.23
2019-04-03T01:05:55.063Z,42.13
2019-04-03T01:08:00.672Z,39.67
2019-04-03T01:10:06.500Z,42.15
2019-04-03T01:12:12.186Z,43.48
2019-04-03T01:14:17.699Z,44.13
2019-04-03T01:16:23.220Z,38.80
2019-04-03T01:18:28.865Z,37.75
2019-04-03T01:20:34.596Z,43.05
2019-04-03T01:22:41.746Z,48.58
2019-04-03T01:24:47.281Z,47.08
2019-04-03T01:26:52.804Z,43.55
2019-04-03T01:29:17.686Z,42.60
2019-04-03T01:33:27.747Z,39.55
2019-04-03T01:35:33.272Z,40.15
2019-04-03T01:37:38.817Z,45.73
2019-04-03T01:39:44.533Z,41.00
2019-04-03T01:41:51.465Z,40.92
2019-04-03T01:43:57.447Z,39.33
2019-04-03T01:46:03.007Z,37.23
2019-04-03T01:48:08.516Z,45.60
2019-04-03T01:50:14.133Z,40.28
2019-04-03T01:52:19.650Z,38.73
2019-04-03T01:54:25.171Z,41.98
2019-04-03T01:56:31.794Z,44.85
2019-04-03T01:58:37.341Z,38.48
2019-04-03T02:00:42.855Z,41.35
2019-04-03T02:02:48.378Z,38.33
2019-04-03T02:04:54.065Z,39.08
2019-04-03T02:06:59.710Z,40.43
2019-04-03T02:09:08.448Z,38.30
2019-04-03T02:11:14.102Z,41.92
2019-04-03T02:13:21.160Z,41.63
2019-04-03T02:15:26.804Z,40.90
2019-04-03T02:17:32.424Z,39.65
2019-04-03T02:19:37.933Z,35.75
2019-04-03T02:21:43.463Z,38.85
2019-04-03T02:23:49.161Z,36.35
2019-04-03T02:25:54.645Z,36.42
2019-04-03T02:28:00.242Z,37.83
2019-04-03T02:30:11.796Z,33.85
2019-04-03T02:32:14.732Z,38.02
2019-04-03T02:34:20.245Z,37.00
2019-04-03T02:36:25.789Z,31.50
2019-04-03T02:38:31.330Z,37.53
2019-04-03T02:40:36.986Z,39.40
2019-04-03T02:42:42.607Z,36.65
2019-04-03T02:44:48.447Z,33.65
2019-04-03T02:46:57.283Z,36.28
2019-04-03T02:49:02.537Z,34.45
2019-04-03T02:51:08.113Z,34.90
2019-04-03T02:53:14.186Z,35.68
2019-04-03T02:55:20.014Z,38.63
2019-04-03T02:57:25.530Z,33.88
2019-04-03T02:59:31.056Z,38.88
2019-04-03T03:01:39.767Z,40.75
2019-04-03T03:03:43.820Z,33.67
2019-04-03T03:05:49.414Z,37.85
2019-04-03T03:07:55.127Z,35.05
2019-04-03T03:10:01.635Z,32.98
2019-04-03T03:12:08.957Z,39.38
2019-04-03T03:14:15.200Z,37.20
2019-04-03T03:16:20.914Z,36.48
2019-04-03T03:18:27.241Z,34.45
2019-04-03T03:20:38.513Z,38.58
2019-04-03T03:22:42.453Z,36.15
2019-04-03T03:24:48.099Z,39.27
2019-04-03T03:26:53.987Z,36.75
2019-04-03T03:29:15.320Z,34.78
2019-04-03T03:31:08.174Z,41.08
2019-04-03T03:33:32.967Z,36.60
2019-04-03T03:35:29.414Z,37.95
2019-04-03T03:37:33.105Z,36.93
2019-04-03T03:39:37.562Z,38.53
2019-04-03T03:41:44.122Z,38.02
2019-04-03T03:43:49.697Z,42.00
2019-04-03T03:45:55.702Z,40.85
2019-04-03T03:48:01.369Z,34.10
2019-04-03T03:50:08.335Z,35.58
2019-04-03T03:52:16.443Z,39.90
2019-04-03T03:54:22.436Z,38.38
2019-04-03T03:56:31.231Z,41.92
2019-04-03T03:58:36.840Z,42.88
2019-04-03T04:00:42.528Z,42.48
2019-04-03T04:02:48.590Z,42.67
2019-04-03T04:04:54.984Z,42.58
2019-04-03T04:07:03.351Z,45.98
2019-04-03T04:09:08.648Z,45.08
2019-04-03T04:11:14.321Z,41.37
2019-04-03T04:13:19.938Z,43.78
2019-04-03T04:15:28.591Z,44.30
2019-04-03T04:17:33.602Z,42.55
2019-04-03T04:19:40.139Z,44.15
2019-04-03T04:21:45.928Z,43.28
2019-04-03T04:23:55.160Z,42.78
2019-04-03T04:26:01.597Z,40.10
2019-04-03T04:28:09.184Z,42.93
2019-04-03T04:30:17.427Z,37.70
2019-04-03T04:32:22.864Z,38.55
2019-04-03T04:34:28.481Z,38.00
2019-04-03T04:36:34.058Z,41.45
2019-04-03T04:38:39.574Z,38.20
2019-04-03T04:40:45.115Z,40.12
2019-04-03T04:42:50.697Z,43.68
2019-04-03T04:44:56.208Z,41.98
2019-04-03T04:47:01.820Z,39.60
2019-04-03T04:49:07.430Z,42.45
2019-04-03T04:51:12.883Z,38.42
2019-04-03T04:53:18.415Z,37.90
2019-04-03T04:55:23.938Z,46.48
2019-04-03T04:57:29.444Z,38.85
2019-04-03T04:59:36.682Z,43.73
2019-04-03T05:01:42.273Z,42.03
2019-04-03T05:03:47.799Z,43.00
2019-04-03T05:05:53.548Z,47.78
2019-04-03T05:08:01.356Z,47.58
2019-04-03T05:10:06.753Z,42.98
2019-04-03T05:12:24.937Z,45.23
2019-04-03T05:14:30.532Z,46.45
2019-04-03T05:16:36.125Z,45.90
2019-04-03T05:18:41.653Z,49.08
2019-04-03T05:20:47.176Z,47.30
2019-04-03T05:22:53.108Z,45.40
2019-04-03T05:25:00.087Z,46.42
2019-04-03T05:27:07.418Z,45.48
2019-04-03T05:29:12.874Z,45.65
2019-04-03T05:31:19.388Z,41.85
2019-04-03T05:33:24.901Z,54.18
2019-04-03T05:35:30.476Z,47.70
2019-04-03T05:37:50.351Z,43.45
2019-04-03T05:39:55.906Z,43.50
2019-04-03T05:42:02.085Z,45.98
2019-04-03T05:44:07.925Z,39.42
2019-04-03T05:46:13.635Z,44.38
2019-04-03T05:48:19.379Z,45.20
2019-04-03T05:50:26.495Z,44.33
2019-04-03T05:52:33.154Z,43.33
2019-04-03T05:54:40.025Z,42.60
2019-04-03T05:56:45.977Z,41.45
2019-04-03T05:58:55.987Z,42.90
2019-04-03T06:01:05.137Z,45.25
2019-04-03T06:03:05.821Z,40.12
2019-04-03T06:05:12.793Z,41.30
2019-04-03T06:07:18.995Z,49.90
2019-04-03T06:09:24.568Z,38.78
2019-04-03T06:11:30.086Z,36.88
2019-04-03T06:13:35.665Z,39.25
2019-04-03T06:15:41.228Z,42.58
2019-04-03T06:17:47.150Z,40.00
2019-04-03T06:19:53.982Z,39.38
2019-04-03T06:21:59.776Z,42.45
2019-04-03T06:24:05.651Z,40.05
2019-04-03T06:26:11.457Z,37.25
2019-04-03T06:28:17.096Z,39.67
2019-04-03T06:30:24.323Z,40.20
2019-04-03T06:32:30.227Z,38.48
2019-04-03T06:34:47.675Z,36.90
2019-04-03T06:36:53.183Z,37.17
2019-04-03T06:38:58.700Z,36.00
2019-04-03T06:41:04.248Z,38.20
2019-04-03T06:43:09.841Z,40.83
2019-04-03T06:45:16.095Z,38.20
2019-04-03T06:47:22.928Z,38.55
2019-04-03T06:49:28.469Z,41.77
2019-04-03T06:51:34.016Z,35.08
2019-04-03T06:53:39.560Z,37.38
2019-04-03T06:55:45.338Z,34.67
2019-04-03T06:57:50.964Z,36.33
2019-04-03T06:59:56.762Z,39.20
2019-04-03T07:02:03.082Z,37.45
2019-04-03T07:04:09.205Z,38.75
2019-04-03T07:06:15.001Z,36.68
2019-04-03T07:08:30.174Z,35.83
2019-04-03T07:10:27.793Z,36.10
2019-04-03T07:12:33.435Z,33.28
2019-04-03T07:14:38.965Z,34.43
2019-04-03T07:16:44.488Z,33.55
2019-04-03T07:18:50.126Z,35.33
2019-04-03T07:20:55.597Z,35.35
2019-04-03T07:23:01.188Z,40.12
2019-04-03T07:25:08.338Z,39.38
2019-04-03T07:27:15.043Z,39.98
2019-04-03T07:29:20.986Z,33.80
2019-04-03T07:31:26.612Z,32.65
2019-04-03T07:33:32.213Z,32.00
2019-04-03T07:35:39.128Z,30.55
2019-04-03T07:37:44.977Z,32.63
2019-04-03T07:39:50.591Z,36.60
2019-04-03T07:41:56.125Z,33.50
2019-04-03T07:44:01.681Z,35.25
2019-04-03T07:46:07.216Z,29.27
2019-04-03T07:48:12.797Z,29.10
2019-04-03T07:50:18.811Z,32.65
2019-04-03T07:52:24.765Z,33.30
2019-04-03T07:54:30.363Z,35.03
2019-04-03T07:56:35.916Z,31.35
2019-04-03T07:58:41.438Z,33.48
2019-04-03T08:00:46.963Z,28.73
2019-04-03T08:02:52.500Z,23.60
2019-04-03T08:05:00.693Z,28.27
2019-04-03T08:07:05.711Z,29.10
2019-04-03T08:09:11.296Z,31.90
2019-04-03T08:11:16.974Z,31.33
2019-04-03T08:13:22.512Z,28.70
2019-04-03T08:15:28.073Z,32.35
2019-04-03T08:17:33.662Z,27.48
2019-04-03T08:19:39.130Z,26.90
2019-04-03T08:21:44.681Z,26.05
2019-04-03T08:23:50.218Z,29.98
2019-04-03T08:25:55.816Z,30.52
2019-04-03T08:28:01.279Z,33.83
2019-04-03T08:30:08.811Z,29.35
2019-04-03T08:32:16.249Z,33.05
2019-04-03T08:34:22.843Z,28.30
2019-04-03T08:36:28.396Z,30.15
2019-04-03T08:38:34.112Z,26.10
2019-04-03T08:40:39.652Z,30.32
2019-04-03T08:42:45.235Z,28.87
2019-04-03T08:44:50.695Z,28.75
2019-04-03T08:46:56.278Z,30.10
2019-04-03T08:49:02.932Z,29.35
2019-04-03T08:51:08.470Z,24.72
2019-04-03T08:53:14.204Z,32.98
2019-04-03T08:55:19.792Z,27.30
2019-04-03T08:57:25.329Z,29.77
2019-04-03T08:59:30.943Z,33.40
2019-04-03T09:01:37.264Z,31.23
2019-04-03T09:03:43.934Z,33.80
2019-04-03T09:05:51.036Z,29.12
2019-04-03T09:07:57.161Z,32.15
2019-04-03T09:10:02.750Z,30.60
2019-04-03T09:12:09.360Z,30.82
2019-04-03T09:14:15.019Z,31.80
2019-04-03T09:16:20.604Z,34.45
2019-04-03T09:18:26.671Z,35.23
2019-04-03T09:20:34.897Z,33.18
2019-04-03T09:22:40.380Z,31.93
2019-04-03T09:24:45.925Z,29.87
2019-04-03T09:26:52.532Z,36.42
2019-04-03T09:28:58.197Z,32.33
2019-04-03T09:31:03.804Z,39.25
2019-04-03T09:33:09.344Z,31.55
2019-04-03T09:35:15.322Z,29.32
2019-04-03T09:37:21.929Z,34.30
2019-04-03T09:39:27.436Z,36.48
2019-04-03T09:41:32.963Z,29.02
2019-04-03T09:43:40.105Z,30.35
2019-04-03T09:45:45.911Z,43.25
2019-04-03T09:47:51.526Z,39.70
2019-04-03T09:49:57.066Z,29.15
2019-04-03T09:52:02.606Z,43.90
2019-04-03T09:54:08.269Z,32.73
2019-04-03T09:56:13.815Z,41.33
2019-04-03T09:58:19.348Z,30.68
2019-04-03T10:00:24.999Z,27.22
2019-04-03T10:02:31.033Z,32.28
2019-04-03T10:04:36.629Z,34.70
2019-04-03T10:06:42.149Z,32.35
2019-04-03T10:08:47.702Z,36.10
2019-04-03T10:10:54.458Z,29.02
2019-04-03T10:13:01.593Z,32.63
2019-04-03T10:15:08.014Z,36.80
2019-04-03T10:17:13.622Z,28.12
2019-04-03T10:19:19.193Z,27.27
2019-04-03T10:21:24.696Z,29.92
2019-04-03T10:23:30.220Z,37.93
2019-04-03T10:25:37.374Z,34.27
2019-04-03T10:27:43.716Z,29.07
2019-04-03T10:29:50.549Z,26.97
2019-04-03T10:31:56.335Z,26.05
2019-04-03T10:34:03.967Z,29.85
2019-04-03T10:36:11.057Z,29.77
2019-04-03T10:38:18.567Z,31.73
2019-04-03T10:40:25.346Z,35.50
2019-04-03T10:42:31.750Z,28.73
2019-04-03T10:44:37.343Z,28.67
2019-04-03T10:46:42.880Z,34.27
2019-04-03T10:48:48.417Z,29.05
2019-04-03T10:50:53.996Z,28.35
2019-04-03T10:52:59.582Z,29.02
2019-04-03T10:55:08.418Z,26.75
2019-04-03T10:57:14.062Z,32.90
2019-04-03T10:59:19.556Z,32.85
2019-04-03T11:01:25.157Z,28.05
2019-04-03T11:03:30.732Z,31.87
2019-04-03T11:05:36.390Z,28.38
2019-04-03T11:07:41.933Z,25.00
2019-04-03T11:09:48.024Z,32.10
2019-04-03T11:11:54.277Z,24.20
2019-04-03T11:14:02.274Z,28.30
2019-04-03T11:16:07.188Z,26.23
2019-04-03T11:18:12.824Z,25.05
2019-04-03T11:20:18.633Z,33.53
2019-04-03T11:22:24.477Z,28.07
2019-04-03T11:24:29.989Z,28.42
2019-04-03T11:26:35.518Z,30.82
2019-04-03T11:28:41.692Z,31.70
2019-04-03T11:30:47.301Z,27.85
2019-04-03T11:32:52.975Z,27.10
2019-04-03T11:34:58.534Z,23.15
2019-04-03T11:37:04.130Z,30.60
2019-04-03T11:39:14.840Z,28.00
2019-04-03T11:41:19.607Z,25.48
2019-04-03T11:43:24.690Z,23.32
2019-04-03T11:45:30.529Z,32.50
2019-04-03T11:47:36.128Z,25.50
2019-04-03T11:49:41.694Z,23.20
2019-04-03T11:51:47.496Z,21.90
2019-04-03T11:53:53.351Z,24.95
2019-04-03T11:55:58.884Z,23.83
2019-04-03T11:58:04.748Z,27.50
2019-04-03T12:00:19.936Z,25.05
2019-04-03T12:02:25.551Z,24.32
2019-04-03T12:04:31.287Z,25.45
2019-04-03T12:06:36.836Z,26.27
2019-04-03T12:08:44.580Z,42.75
2019-04-03T12:10:49.639Z,52.43
2019-04-03T12:12:55.144Z,36.45
2019-04-03T12:15:00.707Z,20.68
2019-04-03T12:17:06.237Z,38.60
2019-04-03T12:19:11.823Z,24.30
2019-04-03T12:21:18.912Z,22.20
2019-04-03T12:23:26.804Z,25.80
2019-04-03T12:25:34.299Z,16.80
2019-04-03T12:27:39.302Z,20.62
2019-04-03T12:29:44.959Z,42.38
2019-04-03T12:31:51.230Z,24.50
2019-04-03T12:34:01.089Z,38.02
2019-04-03T12:36:06.652Z,18.05
2019-04-03T12:38:11.487Z,24.80
2019-04-03T12:40:18.109Z,26.93
2019-04-03T12:42:23.644Z,39.38
2019-04-03T12:44:29.169Z,30.12
2019-04-03T12:46:37.815Z,29.82
2019-04-03T12:48:44.531Z,15.28
2019-04-03T12:50:50.186Z,18.02
2019-04-03T12:52:56.134Z,31.23
2019-04-03T12:55:01.860Z,28.30
2019-04-03T12:57:07.771Z,26.50
2019-04-03T12:59:13.851Z,17.15
2019-04-03T13:01:19.816Z,20.80
2019-04-03T13:03:26.134Z,19.87
2019-04-03T13:05:31.879Z,21.02
2019-04-03T13:07:37.848Z,20.17
2019-04-03T13:09:43.390Z,11.00
2019-04-03T13:11:50.429Z,10.85
2019-04-03T13:13:58.866Z,21.52
2019-04-03T13:16:03.697Z,38.45
2019-04-03T13:18:09.358Z,28.55
2019-04-03T13:20:15.926Z,26.70
2019-04-03T13:22:21.437Z,12.25
2019-04-03T13:24:26.982Z,22.37
2019-04-03T13:26:32.723Z,20.82
2019-04-03T13:28:40.257Z,18.48
2019-04-03T13:30:45.543Z,31.27
2019-04-03T13:32:59.017Z,48.92
2019-04-03T13:34:58.275Z,19.57
2019-04-03T13:37:04.211Z,13.55
2019-04-03T13:39:10.825Z,24.00
2019-04-03T13:41:16.691Z,18.73
2019-04-03T13:43:22.677Z,26.52
2019-04-03T13:45:30.739Z,15.75
2019-04-03T13:47:35.895Z,17.42
2019-04-03T13:49:41.586Z,14.60
2019-04-03T13:51:47.483Z,14.23
2019-04-03T13:53:53.879Z,22.70
2019-04-03T13:56:00.057Z,16.40
2019-04-03T13:58:05.830Z,21.10
2019-04-03T14:00:19.696Z,14.87
2019-04-03T14:02:19.614Z,23.73
2019-04-03T14:04:25.294Z,14.45
2019-04-03T14:06:31.028Z,20.40
2019-04-03T14:08:36.561Z,17.60
2019-04-03T14:10:42.078Z,11.48
2019-04-03T14:12:47.627Z,20.45
2019-04-03T14:14:53.497Z,18.67
2019-04-03T14:16:59.308Z,19.12
2019-04-03T14:19:04.976Z,19.02
2019-04-03T14:21:10.954Z,15.28
2019-04-03T14:23:16.822Z,14.55
2019-04-03T14:25:23.935Z,20.68
2019-04-03T14:27:31.295Z,22.93
2019-04-03T14:29:39.165Z,22.73
2019-04-03T14:31:47.957Z,21.42
2019-04-03T14:33:52.473Z,14.43
2019-04-03T14:35:58.072Z,14.90
2019-04-03T14:38:03.656Z,31.15
2019-04-03T14:40:11.887Z,7.08
2019-04-03T14:42:16.327Z,23.25
2019-04-03T14:44:21.877Z,24.35
2019-04-03T14:46:27.416Z,24.35
2019-04-03T14:48:32.952Z,42.65
2019-04-03T14:50:39.084Z,81.25
2019-04-03T14:52:47.683Z,28.90
2019-04-03T14:54:51.964Z,37.35
2019-04-03T14:56:57.492Z,59.10
2019-04-03T14:59:03.135Z,27.87
2019-04-03T15:01:08.824Z,52.93
2019-04-03T15:03:14.692Z,20.08
2019-04-03T15:05:20.290Z,26.50
2019-04-03T15:07:26.338Z,30.30
2019-04-03T15:09:32.042Z,35.98
2019-04-03T15:11:38.178Z,38.65
2019-04-03T15:13:44.264Z,25.95
2019-04-03T15:15:50.287Z,26.42
2019-04-03T15:17:55.825Z,35.33
2019-04-03T15:20:01.381Z,32.05
2019-04-03T15:22:06.976Z,29.12
2019-04-03T15:24:13.059Z,30.65
2019-04-03T15:26:22.234Z,31.05
2019-04-03T15:28:29.714Z,23.95
2019-04-03T15:30:34.184Z,22.22
2019-04-03T15:32:40.122Z,25.70
2019-04-03T15:34:46.046Z,27.55
2019-04-03T15:36:51.727Z,27.95
2019-04-03T15:38:58.770Z,23.10
2019-04-03T15:41:04.541Z,35.30
2019-04-03T15:43:11.648Z,27.05
2019-04-03T15:45:17.865Z,41.73
2019-04-03T15:47:34.352Z,44.38
2019-04-03T15:49:30.726Z,57.48
2019-04-03T15:51:38.845Z,29.27
2019-04-03T15:53:43.784Z,41.80
2019-04-03T15:55:49.352Z,81.12
2019-04-03T15:57:54.867Z,57.08
2019-04-03T16:00:02.834Z,131.03
2019-04-03T16:02:11.227Z,82.00
2019-04-03T16:04:16.186Z,54.38
2019-04-03T16:06:21.702Z,40.35
2019-04-03T16:08:28.214Z,54.20
2019-04-03T16:10:34.014Z,33.55
2019-04-03T16:12:42.925Z,44.93
2019-04-03T16:14:46.874Z,37.40
2019-04-03T16:16:52.517Z,48.52
2019-04-03T16:18:58.250Z,47.48
2019-04-03T16:21:03.885Z,77.62
2019-04-03T16:23:09.536Z,91.63
2019-04-03T16:25:16.759Z,52.65
2019-04-03T16:27:22.592Z,58.17
2019-04-03T16:29:30.173Z,106.35
2019-04-03T16:31:35.290Z,66.77
2019-04-03T16:33:41.416Z,71.20
2019-04-03T16:35:47.088Z,40.03
2019-04-03T16:37:56.593Z,68.42
2019-04-03T16:40:04.193Z,69.07
2019-04-03T16:42:08.525Z,56.80
2019-04-03T16:44:14.995Z,74.90
2019-04-03T16:46:20.628Z,108.85
2019-04-03T16:48:26.601Z,203.67
2019-04-03T16:50:32.852Z,75.25
2019-04-03T16:52:38.755Z,60.12
2019-04-03T16:54:45.442Z,48.30
2019-04-03T16:56:50.982Z,55.43
2019-04-03T16:58:59.572Z,42.33
2019-04-03T17:01:04.191Z,53.17
2019-04-03T17:03:09.713Z,53.08
2019-04-03T17:05:15.400Z,43.73
2019-04-03T17:07:21.792Z,46.88
2019-04-03T17:09:27.973Z,47.83
2019-04-03T17:11:33.560Z,51.58
2019-04-03T17:13:39.041Z,69.42
2019-04-03T17:15:45.351Z,98.55
2019-04-03T17:17:51.395Z,76.77
2019-04-03T17:19:56.966Z,60.08
2019-04-03T17:22:04.035Z,58.95
2019-04-03T17:24:09.732Z,52.27
2019-04-03T17:26:15.571Z,47.50
2019-04-03T17:28:21.138Z,51.75
2019-04-03T17:30:27.828Z,47.00
2019-04-03T17:32:33.347Z,41.70
2019-04-03T17:34:41.938Z,36.68
2019-04-03T17:36:46.144Z,29.00
2019-04-03T17:38:51.698Z,34.90
2019-04-03T17:40:57.326Z,43.52
2019-04-03T17:43:02.839Z,37.93
2019-04-03T17:45:09.141Z,35.50
2019-04-03T17:47:15.616Z,30.70
2019-04-03T17:49:21.144Z,38.67
2019-04-03T17:51:26.697Z,33.58
2019-04-03T17:53:32.322Z,36.50
2019-04-03T17:55:37.849Z,35.25
2019-04-03T17:57:45.303Z,35.83
2019-04-03T17:59:51.767Z,25.75
2019-04-03T18:01:57.383Z,36.83
2019-04-03T18:04:02.912Z,36.75
2019-04-03T18:06:08.563Z,25.97
2019-04-03T18:08:14.158Z,27.90
2019-04-03T18:10:19.936Z,27.25
2019-04-03T18:12:25.564Z,35.50
2019-04-03T18:14:31.094Z,44.42
2019-04-03T18:16:36.644Z,37.65
2019-04-03T18:18:42.202Z,45.35
2019-04-03T18:20:47.757Z,40.55
2019-04-03T18:22:53.288Z,29.32
2019-04-03T18:24:58.842Z,32.80
2019-04-03T18:27:06.467Z,36.83
2019-04-03T18:29:11.699Z,41.83
2019-04-03T18:31:17.254Z,42.30
2019-04-03T18:33:23.847Z,45.05
2019-04-03T18:35:29.507Z,45.23
2019-04-03T18:37:35.018Z,44.73
2019-04-03T18:39:41.083Z,51.55
2019-04-03T18:41:58.949Z,47.90
2019-04-03T18:44:06.257Z,54.53
2019-04-03T18:46:11.779Z,54.80
2019-04-03T18:48:17.340Z,56.33
2019-04-03T18:50:22.967Z,48.45
2019-04-03T18:52:28.543Z,49.27
2019-04-03T18:54:34.081Z,51.63
2019-04-03T18:56:39.628Z,48.78
2019-04-03T18:58:45.173Z,53.42
2019-04-03T19:00:50.713Z,50.55
2019-04-03T19:02:56.408Z,39.38
2019-04-03T19:05:02.640Z,43.75
2019-04-03T19:07:08.681Z,47.55
2019-04-03T19:09:14.794Z,44.67
2019-04-03T19:11:20.401Z,31.07
2019-04-03T19:13:25.924Z,44.05
2019-04-03T19:15:31.865Z,49.35
2019-04-03T19:17:38.828Z,29.77
2019-04-03T19:19:44.441Z,38.13
2019-04-03T19:21:49.989Z,52.80
2019-04-03T19:23:55.592Z,44.55
2019-04-03T19:26:01.119Z,39.63
2019-04-03T19:28:06.779Z,37.93
2019-04-03T19:30:12.908Z,41.73
2019-04-03T19:32:18.646Z,46.63
2019-04-03T19:34:24.464Z,41.20
2019-04-03T19:36:30.502Z,36.15
2019-04-03T19:38:36.412Z,42.90
2019-04-03T19:40:43.931Z,40.20
2019-04-03T19:42:49.476Z,43.08
2019-04-03T19:44:56.099Z,36.93
2019-04-03T19:47:01.865Z,42.43
2019-04-03T19:49:07.470Z,41.20
2019-04-03T19:51:13.134Z,39.40
2019-04-03T19:53:18.752Z,46.42
2019-04-03T19:55:26.371Z,43.60
2019-04-03T19:57:31.657Z,43.52
2019-04-03T19:59:37.270Z,43.17
2019-04-03T20:01:42.854Z,37.15
2019-04-03T20:03:48.343Z,36.45
2019-04-03T20:05:55.220Z,39.23
2019-04-03T20:08:02.529Z,35.80
2019-04-03T20:10:11.601Z,39.50
2019-04-03T20:12:17.400Z,41.00
2019-04-03T20:14:22.969Z,40.08
2019-04-03T20:16:28.643Z,48.35
2019-04-03T20:18:34.167Z,43.28
2019-04-03T20:20:39.791Z,48.45
2019-04-03T20:22:45.300Z,44.45
2019-04-03T20:24:59.770Z,50.58
2019-04-03T20:27:00.892Z,55.28
2019-04-03T20:29:06.443Z,64.90
2019-04-03T20:31:12.040Z,64.20
2019-04-03T20:33:17.690Z,65.03
2019-04-03T20:35:23.232Z,72.20
2019-04-03T20:37:28.756Z,69.10
2019-04-03T20:39:35.256Z,73.10
2019-04-03T20:41:40.869Z,70.08
2019-04-03T20:43:47.466Z,70.92
2019-04-03T20:45:53.116Z,66.97
2019-04-03T20:47:58.720Z,64.55
2019-04-03T20:50:07.515Z,62.50
2019-04-03T20:52:13.240Z,64.20
2019-04-03T20:54:21.000Z,59.67
2019-04-03T20:56:27.136Z,61.58
2019-04-03T20:58:33.289Z,50.58
2019-04-03T21:00:38.832Z,54.73
2019-04-03T21:02:44.373Z,53.58
2019-04-03T21:04:49.958Z,47.05
2019-04-03T21:06:55.473Z,43.02
2019-04-03T21:09:01.128Z,44.35
2019-04-03T21:11:08.361Z,43.40
2019-04-03T21:13:15.321Z,41.98
2019-04-03T21:15:21.169Z,36.83
2019-04-03T21:17:26.713Z,39.50
2019-04-03T21:19:32.254Z,42.30
2019-04-03T21:21:37.793Z,40.20
2019-04-03T21:23:43.353Z,45.85
2019-04-03T21:25:48.898Z,44.65
2019-04-03T21:27:56.029Z,44.75
2019-04-03T21:30:01.574Z,48.70
2019-04-03T21:32:07.133Z,47.45
2019-04-03T21:34:12.673Z,53.48
2019-04-03T21:36:18.256Z,51.63
2019-04-03T21:38:23.863Z,51.18
2019-04-03T21:40:29.403Z,47.67
2019-04-03T21:42:35.311Z,54.77
2019-04-03T21:44:40.859Z,46.63
2019-04-03T21:46:46.433Z,46.75
2019-04-03T21:48:51.988Z,40.33
2019-04-03T21:50:57.600Z,42.03
2019-04-03T21:53:03.141Z,47.45
2019-04-03T21:55:09.127Z,42.45
2019-04-03T21:57:14.725Z,42.93
2019-04-03T21:59:21.396Z,45.38
2019-04-03T22:01:27.023Z,44.13
2019-04-03T22:03:32.573Z,40.17
2019-04-03T22:05:38.137Z,43.30
2019-04-03T22:07:43.760Z,45.38
2019-04-03T22:09:49.268Z,42.80
2019-04-03T22:11:54.825Z,41.10
2019-04-03T22:14:00.392Z,39.45
2019-04-03T22:16:05.993Z,35.03
2019-04-03T22:18:11.523Z,35.38
2019-04-03T22:20:17.167Z,40.45
2019-04-03T22:22:22.699Z,35.08
2019-04-03T22:24:28.211Z,35.78
2019-04-03T22:26:33.760Z,40.50
2019-04-03T22:28:39.302Z,38.13
2019-04-03T22:30:44.840Z,36.42
2019-04-03T22:32:50.391Z,42.98
2019-04-03T22:34:55.922Z,38.83
2019-04-03T22:37:03.842Z,40.88
2019-04-03T22:39:09.216Z,40.40
2019-04-03T22:41:15.185Z,47.00
2019-04-03T22:43:20.746Z,44.03
2019-04-03T22:45:26.311Z,38.83
2019-04-03T22:47:31.836Z,43.28
2019-04-03T22:49:37.384Z,33.53
2019-04-03T22:51:42.980Z,31.10
2019-04-03T22:53:48.532Z,36.23
2019-04-03T22:55:54.064Z,36.30
2019-04-03T22:57:59.637Z,32.42
2019-04-03T23:00:07.384Z,32.17
2019-04-03T23:02:14.806Z,27.05
2019-04-03T23:04:20.429Z,30.57
2019-04-03T23:06:26.018Z,32.93
2019-04-03T23:08:31.553Z,34.27
2019-04-03T23:10:37.143Z,34.55
2019-04-03T23:12:42.747Z,35.38
2019-04-03T23:14:48.296Z,32.38
2019-04-03T23:16:53.815Z,34.18
2019-04-03T23:18:59.427Z,27.30
2019-04-03T23:21:05.084Z,29.80
2019-04-03T23:23:10.646Z,34.95
2019-04-03T23:25:16.176Z,36.98
2019-04-03T23:27:21.726Z,35.58
2019-04-03T23:29:27.281Z,31.85
2019-04-03T23:31:32.823Z,30.72
2019-04-03T23:33:38.365Z,26.27
2019-04-03T23:35:43.912Z,33.50
2019-04-03T23:37:50.521Z,30.43
2019-04-03T23:39:56.069Z,33.20
2019-04-03T23:42:01.627Z,26.80
2019-04-03T23:44:10.553Z,27.15
2019-04-03T23:46:14.726Z,25.80
2019-04-03T23:48:20.769Z,27.13
2019-04-03T23:50:26.315Z,31.12
2019-04-03T23:52:31.832Z,34.53
2019-04-03T23:54:37.434Z,31.48
2019-04-03T23:56:42.947Z,31.00
2019-04-03T23:58:48.496Z,32.08
